sensor_id;sensor_type;location;lat;lon;timestamp;pressure;altitude;pressure_sealevel;temperature;humidity
10992;BME280;5549;47.028;15.514;2023-01-29T00:00:07;97249.88;;;2.47;73.80
10992;BME280;5549;47.028;15.514;2023-01-29T00:02:38;97246.50;;;2.45;74.26
10992;BME280;5549;47.028;15.514;2023-01-29T00:05:07;97245.53;;;2.47;74.05
10992;BME280;5549;47.028;15.514;2023-01-29T00:07:35;97247.34;;;2.45;73.91
10992;BME280;5549;47.028;15.514;2023-01-29T00:10:02;97251.69;;;2.45;73.70
10992;BME280;5549;47.028;15.514;2023-01-29T00:12:31;97249.88;;;2.47;73.73
10992;BME280;5549;47.028;15.514;2023-01-29T00:15:02;97248.91;;;2.49;74.16
10992;BME280;5549;47.028;15.514;2023-01-29T00:17:30;97253.97;;;2.52;73.72
10992;BME280;5549;47.028;15.514;2023-01-29T00:19:58;97253.13;;;2.52;73.83
10992;BME280;5549;47.028;15.514;2023-01-29T00:22:25;97261.81;;;2.51;73.75
10992;BME280;5549;47.028;15.514;2023-01-29T00:24:53;97253.91;;;2.54;73.52
10992;BME280;5549;47.028;15.514;2023-01-29T00:27:21;97253.91;;;2.54;73.65
10992;BME280;5549;47.028;15.514;2023-01-29T00:29:48;97258.19;;;2.55;73.08
10992;BME280;5549;47.028;15.514;2023-01-29T00:32:35;97251.19;;;2.57;73.11
10992;BME280;5549;47.028;15.514;2023-01-29T00:35:04;97256.38;;;2.57;73.47
10992;BME280;5549;47.028;15.514;2023-01-29T00:37:31;97258.06;;;2.58;73.16
10992;BME280;5549;47.028;15.514;2023-01-29T00:39:59;97258.97;;;2.57;73.31
10992;BME280;5549;47.028;15.514;2023-01-29T00:42:27;97255.47;;;2.58;73.00
10992;BME280;5549;47.028;15.514;2023-01-29T00:45:14;97258.84;;;2.60;72.72
10992;BME280;5549;47.028;15.514;2023-01-29T00:47:43;97257.22;;;2.57;73.25
10992;BME280;5549;47.028;15.514;2023-01-29T00:50:13;97252.88;;;2.58;72.74
10992;BME280;5549;47.028;15.514;2023-01-29T00:52:41;97258.84;;;2.60;72.69
10992;BME280;5549;47.028;15.514;2023-01-29T00:55:11;97258.78;;;2.62;72.55
10992;BME280;5549;47.028;15.514;2023-01-29T00:57:38;97268.44;;;2.58;72.89
10992;BME280;5549;47.028;15.514;2023-01-29T01:00:10;97261.44;;;2.60;72.83
10992;BME280;5549;47.028;15.514;2023-01-29T01:02:38;97271.09;;;2.56;73.09
10992;BME280;5549;47.028;15.514;2023-01-29T01:05:27;97266.75;;;2.57;72.95
10992;BME280;5549;47.028;15.514;2023-01-29T01:07:56;97267.53;;;2.59;73.01
10992;BME280;5549;47.028;15.514;2023-01-29T01:10:29;97262.28;;;2.61;72.84
10992;BME280;5549;47.028;15.514;2023-01-29T01:13:02;97255.41;;;2.60;72.93
10992;BME280;5549;47.028;15.514;2023-01-29T01:15:33;97260.41;;;2.64;72.29
10992;BME280;5549;47.028;15.514;2023-01-29T01:18:04;97261.31;;;2.63;72.17
10992;BME280;5549;47.028;15.514;2023-01-29T01:20:35;97258.97;;;2.57;72.46
10992;BME280;5549;47.028;15.514;2023-01-29T01:23:03;97262.47;;;2.56;72.64
10992;BME280;5549;47.028;15.514;2023-01-29T01:25:31;97257.22;;;2.57;72.35
10992;BME280;5549;47.028;15.514;2023-01-29T01:28:01;97259.88;;;2.56;72.47
10992;BME280;5549;47.028;15.514;2023-01-29T01:30:28;97265.91;;;2.56;72.84
10992;BME280;5549;47.028;15.514;2023-01-29T01:32:56;97262.41;;;2.57;72.96
10992;BME280;5549;47.028;15.514;2023-01-29T01:35:23;97267.59;;;2.57;72.90
10992;BME280;5549;47.028;15.514;2023-01-29T01:37:52;97269.28;;;2.58;73.01
10992;BME280;5549;47.028;15.514;2023-01-29T01:40:21;97275.31;;;2.59;72.56
10992;BME280;5549;47.028;15.514;2023-01-29T01:42:50;97275.31;;;2.59;72.77
10992;BME280;5549;47.028;15.514;2023-01-29T01:45:22;97278.69;;;2.61;72.13
10992;BME280;5549;47.028;15.514;2023-01-29T01:47:55;97285.50;;;2.64;72.51
10992;BME280;5549;47.028;15.514;2023-01-29T01:50:28;97284.84;;;2.58;72.33
10992;BME280;5549;47.028;15.514;2023-01-29T01:53:07;97282.31;;;2.57;72.15
10992;BME280;5549;47.028;15.514;2023-01-29T01:55:38;97289.97;;;2.60;72.57
10992;BME280;5549;47.028;15.514;2023-01-29T01:58:14;97291.84;;;2.56;72.23
10992;BME280;5549;47.028;15.514;2023-01-29T02:00:44;97286.72;;;2.55;72.63
10992;BME280;5549;47.028;15.514;2023-01-29T02:03:12;97296.28;;;2.53;72.60
10992;BME280;5549;47.028;15.514;2023-01-29T02:06:03;97291.75;;;2.58;72.44
10992;BME280;5549;47.028;15.514;2023-01-29T02:08:55;97295.91;;;2.62;72.27
10992;BME280;5549;47.028;15.514;2023-01-29T02:11:42;97293.34;;;2.62;72.34
10992;BME280;5549;47.028;15.514;2023-01-29T02:14:11;97292.50;;;2.62;72.46
10992;BME280;5549;47.028;15.514;2023-01-29T02:16:42;97291.59;;;2.63;72.55
10992;BME280;5549;47.028;15.514;2023-01-29T02:19:18;97297.59;;;2.63;72.41
10992;BME280;5549;47.028;15.514;2023-01-29T02:22:16;97302.78;;;2.63;72.54
10992;BME280;5549;47.028;15.514;2023-01-29T02:28:22;97302.78;;;2.63;72.26
10992;BME280;5549;47.028;15.514;2023-01-29T02:31:03;97300.97;;;2.65;72.19
10992;BME280;5549;47.028;15.514;2023-01-29T02:33:49;97298.31;;;2.67;72.17
10992;BME280;5549;47.028;15.514;2023-01-29T02:36:29;97293.25;;;2.64;71.96
10992;BME280;5549;47.028;15.514;2023-01-29T02:39:06;97303.63;;;2.64;71.92
10992;BME280;5549;47.028;15.514;2023-01-29T02:41:42;97297.59;;;2.63;72.16
10992;BME280;5549;47.028;15.514;2023-01-29T02:44:19;97301.09;;;2.62;72.26
10992;BME280;5549;47.028;15.514;2023-01-29T02:46:56;97303.63;;;2.64;72.69
10992;BME280;5549;47.028;15.514;2023-01-29T02:49:33;97305.31;;;2.65;72.54
10992;BME280;5549;47.028;15.514;2023-01-29T02:52:08;97317.38;;;2.66;72.16
10992;BME280;5549;47.028;15.514;2023-01-29T02:54:43;97312.19;;;2.66;72.34
10992;BME280;5549;47.028;15.514;2023-01-29T02:57:18;97308.69;;;2.67;71.81
10992;BME280;5549;47.028;15.514;2023-01-29T02:59:54;97309.59;;;2.66;72.17
10992;BME280;5549;47.028;15.514;2023-01-29T03:02:29;97314.72;;;2.67;72.10
10992;BME280;5549;47.028;15.514;2023-01-29T03:05:02;97325.94;;;2.68;72.03
10992;BME280;5549;47.028;15.514;2023-01-29T03:07:36;97313.88;;;2.67;72.17
10992;BME280;5549;47.028;15.514;2023-01-29T03:10:16;97319.06;;;2.67;72.11
10992;BME280;5549;47.028;15.514;2023-01-29T03:12:51;97321.72;;;2.65;72.31
10992;BME280;5549;47.028;15.514;2023-01-29T03:15:27;97317.50;;;2.63;72.00
10992;BME280;5549;47.028;15.514;2023-01-29T03:18:00;97309.72;;;2.63;72.70
10992;BME280;5549;47.028;15.514;2023-01-29T03:20:36;97315.63;;;2.66;72.01
10992;BME280;5549;47.028;15.514;2023-01-29T03:23:10;97321.72;;;2.65;72.03
10992;BME280;5549;47.028;15.514;2023-01-29T03:25:42;97313.09;;;2.65;71.85
10992;BME280;5549;47.028;15.514;2023-01-29T03:28:32;97308.88;;;2.62;72.26
10992;BME280;5549;47.028;15.514;2023-01-29T03:31:21;97319.31;;;2.61;72.22
10992;BME280;5549;47.028;15.514;2023-01-29T03:34:12;97318.53;;;2.58;72.30
10992;BME280;5549;47.028;15.514;2023-01-29T03:36:53;97321.06;;;2.60;72.13
10992;BME280;5549;47.028;15.514;2023-01-29T03:39:26;97318.41;;;2.62;72.24
10992;BME280;5549;47.028;15.514;2023-01-29T03:41:59;97323.91;;;2.54;72.66
10992;BME280;5549;47.028;15.514;2023-01-29T03:44:34;97327.47;;;2.51;72.47
10992;BME280;5549;47.028;15.514;2023-01-29T03:47:16;97335.66;;;2.41;72.03
10992;BME280;5549;47.028;15.514;2023-01-29T03:49:55;97327.84;;;2.42;72.28
10992;BME280;5549;47.028;15.514;2023-01-29T03:52:35;97324.63;;;2.36;72.52
10992;BME280;5549;47.028;15.514;2023-01-29T03:55:12;97325.00;;;2.27;73.30
10992;BME280;5549;47.028;15.514;2023-01-29T03:57:45;97325.78;;;2.29;73.16
10992;BME280;5549;47.028;15.514;2023-01-29T04:00:21;97336.09;;;2.30;72.80
10992;BME280;5549;47.028;15.514;2023-01-29T04:03:00;97331.75;;;2.31;73.00
10992;BME280;5549;47.028;15.514;2023-01-29T04:05:37;97328.97;;;2.35;72.63
10992;BME280;5549;47.028;15.514;2023-01-29T04:08:10;97326.31;;;2.37;72.55
10992;BME280;5549;47.028;15.514;2023-01-29T04:10:41;97338.38;;;2.38;72.49
10992;BME280;5549;47.028;15.514;2023-01-29T04:13:11;97334.75;;;2.42;72.41
10992;BME280;5549;47.028;15.514;2023-01-29T04:15:45;97333.91;;;2.41;72.19
10992;BME280;5549;47.028;15.514;2023-01-29T04:18:17;97327.00;;;2.42;72.52
10992;BME280;5549;47.028;15.514;2023-01-29T04:20:45;97323.63;;;2.40;72.61
10992;BME280;5549;47.028;15.514;2023-01-29T04:23:21;97330.50;;;2.41;72.13
10992;BME280;5549;47.028;15.514;2023-01-29T04:26:05;97336.50;;;2.41;72.34
10992;BME280;5549;47.028;15.514;2023-01-29T04:28:50;97340.91;;;2.39;72.47
10992;BME280;5549;47.028;15.514;2023-01-29T04:31:23;97335.72;;;2.39;72.57
10992;BME280;5549;47.028;15.514;2023-01-29T04:34:04;97330.50;;;2.41;71.84
10992;BME280;5549;47.028;15.514;2023-01-29T04:36:45;97332.16;;;2.42;72.23
10992;BME280;5549;47.028;15.514;2023-01-29T04:39:21;97333.03;;;2.42;72.10
10992;BME280;5549;47.028;15.514;2023-01-29T04:41:57;97337.34;;;2.42;71.92
10992;BME280;5549;47.028;15.514;2023-01-29T04:44:34;97340.84;;;2.41;72.38
10992;BME280;5549;47.028;15.514;2023-01-29T04:47:18;97337.47;;;2.39;71.91
10992;BME280;5549;47.028;15.514;2023-01-29T04:50:00;97335.72;;;2.39;72.37
10992;BME280;5549;47.028;15.514;2023-01-29T04:52:37;97335.78;;;2.38;72.14
10992;BME280;5549;47.028;15.514;2023-01-29T04:55:16;97349.72;;;2.35;71.84
10992;BME280;5549;47.028;15.514;2023-01-29T04:57:53;97334.22;;;2.34;72.55
10992;BME280;5549;47.028;15.514;2023-01-29T05:00:29;97329.94;;;2.33;72.25
10992;BME280;5549;47.028;15.514;2023-01-29T05:02:59;97334.03;;;2.38;72.07
10992;BME280;5549;47.028;15.514;2023-01-29T05:05:31;97324.53;;;2.39;71.58
10992;BME280;5549;47.028;15.514;2023-01-29T05:07:59;97323.56;;;2.41;71.49
10992;BME280;5549;47.028;15.514;2023-01-29T05:10:29;97325.38;;;2.39;71.99
10992;BME280;5549;47.028;15.514;2023-01-29T05:13:00;97327.91;;;2.41;71.88
10992;BME280;5549;47.028;15.514;2023-01-29T05:15:37;97331.31;;;2.41;71.76
10992;BME280;5549;47.028;15.514;2023-01-29T05:18:06;97327.91;;;2.41;72.00
10992;BME280;5549;47.028;15.514;2023-01-29T05:20:39;97333.91;;;2.41;71.83
10992;BME280;5549;47.028;15.514;2023-01-29T05:23:09;97341.63;;;2.43;71.67
10992;BME280;5549;47.028;15.514;2023-01-29T05:25:37;97333.81;;;2.44;71.63
10992;BME280;5549;47.028;15.514;2023-01-29T05:28:05;97330.38;;;2.44;71.87
10992;BME280;5549;47.028;15.514;2023-01-29T05:30:34;97332.91;;;2.45;71.54
10992;BME280;5549;47.028;15.514;2023-01-29T05:33:03;97333.81;;;2.44;71.20
10992;BME280;5549;47.028;15.514;2023-01-29T05:35:33;97334.69;;;2.43;71.22
10992;BME280;5549;47.028;15.514;2023-01-29T05:38:02;97337.34;;;2.42;71.54
10992;BME280;5549;47.028;15.514;2023-01-29T05:40:32;97332.16;;;2.42;71.17
10992;BME280;5549;47.028;15.514;2023-01-29T05:42:59;97337.22;;;2.45;71.04
10992;BME280;5549;47.028;15.514;2023-01-29T05:45:27;97334.69;;;2.43;71.02
10992;BME280;5549;47.028;15.514;2023-01-29T05:47:55;97331.28;;;2.43;71.35
10992;BME280;5549;47.028;15.514;2023-01-29T05:50:24;97326.09;;;2.43;71.23
10992;BME280;5549;47.028;15.514;2023-01-29T05:52:58;97329.59;;;2.42;71.27
10992;BME280;5549;47.028;15.514;2023-01-29T05:55:28;97327.00;;;2.42;71.18
10992;BME280;5549;47.028;15.514;2023-01-29T05:57:58;97334.75;;;2.42;70.83
10992;BME280;5549;47.028;15.514;2023-01-29T06:00:27;97335.72;;;2.39;70.90
10992;BME280;5549;47.028;15.514;2023-01-29T06:02:55;97334.94;;;2.37;70.58
10992;BME280;5549;47.028;15.514;2023-01-29T06:05:22;97340.06;;;2.39;70.50
10992;BME280;5549;47.028;15.514;2023-01-29T06:07:52;97339.34;;;2.35;70.85
10992;BME280;5549;47.028;15.514;2023-01-29T06:10:21;97349.78;;;2.34;70.54
10992;BME280;5549;47.028;15.514;2023-01-29T06:12:50;97349.00;;;2.32;70.24
10992;BME280;5549;47.028;15.514;2023-01-29T06:15:18;97342.13;;;2.31;70.08
10992;BME280;5549;47.028;15.514;2023-01-29T06:17:45;97345.63;;;2.30;70.49
10992;BME280;5549;47.028;15.514;2023-01-29T06:20:13;97349.09;;;2.29;70.64
10992;BME280;5549;47.028;15.514;2023-01-29T06:22:41;97357.78;;;2.28;69.98
10992;BME280;5549;47.028;15.514;2023-01-29T06:25:08;97362.19;;;2.25;70.49
10992;BME280;5549;47.028;15.514;2023-01-29T06:27:37;97356.22;;;2.23;70.37
10992;BME280;5549;47.028;15.514;2023-01-29T06:30:10;97362.25;;;2.24;70.25
10992;BME280;5549;47.028;15.514;2023-01-29T06:32:40;97357.22;;;2.19;69.76
10992;BME280;5549;47.028;15.514;2023-01-29T06:35:08;97368.44;;;2.20;69.81
10992;BME280;5549;47.028;15.514;2023-01-29T06:37:36;97372.84;;;2.18;70.37
10992;BME280;5549;47.028;15.514;2023-01-29T06:40:05;97375.38;;;2.19;70.09
10992;BME280;5549;47.028;15.514;2023-01-29T06:42:35;97372.84;;;2.18;69.92
10992;BME280;5549;47.028;15.514;2023-01-29T06:45:03;97368.63;;;2.15;70.00
10992;BME280;5549;47.028;15.514;2023-01-29T06:47:32;97369.53;;;2.14;69.75
10992;BME280;5549;47.028;15.514;2023-01-29T06:50:00;97374.03;;;2.09;69.77
10992;BME280;5549;47.028;15.514;2023-01-29T06:52:28;97386.19;;;2.07;69.86
10992;BME280;5549;47.028;15.514;2023-01-29T06:54:55;97387.88;;;2.08;70.36
10992;BME280;5549;47.028;15.514;2023-01-29T06:57:28;97380.91;;;2.10;70.07
10992;BME280;5549;47.028;15.514;2023-01-29T06:59:56;97386.09;;;2.10;69.80
10992;BME280;5549;47.028;15.514;2023-01-29T07:02:23;97389.53;;;2.11;69.99
10992;BME280;5549;47.028;15.514;2023-01-29T07:04:52;97392.00;;;2.14;70.36
10992;BME280;5549;47.028;15.514;2023-01-29T07:07:20;97385.06;;;2.14;69.83
10992;BME280;5549;47.028;15.514;2023-01-29T07:09:47;97375.53;;;2.15;70.33
10992;BME280;5549;47.028;15.514;2023-01-29T07:12:17;97380.66;;;2.16;70.13
10992;BME280;5549;47.028;15.514;2023-01-29T07:14:45;97378.06;;;2.16;70.08
10992;BME280;5549;47.028;15.514;2023-01-29T07:17:15;97378.69;;;2.23;70.01
10992;BME280;5549;47.028;15.514;2023-01-29T07:19:42;97369.97;;;2.25;70.18
10992;BME280;5549;47.028;15.514;2023-01-29T07:22:11;97366.56;;;2.23;70.56
10992;BME280;5549;47.028;15.514;2023-01-29T07:24:42;97359.81;;;2.19;70.66
10992;BME280;5549;47.028;15.514;2023-01-29T07:27:11;97354.25;;;2.07;71.37
10992;BME280;5549;47.028;15.514;2023-01-29T07:29:39;97347.34;;;2.07;71.61
10992;BME280;5549;47.028;15.514;2023-01-29T07:32:06;97351.63;;;2.08;71.86
10992;BME280;5549;47.028;15.514;2023-01-29T07:34:34;97345.41;;;2.12;72.32
10992;BME280;5549;47.028;15.514;2023-01-29T07:37:01;97358.91;;;2.20;72.24
10992;BME280;5549;47.028;15.514;2023-01-29T07:39:32;97348.59;;;1.97;72.85
10992;BME280;5549;47.028;15.514;2023-01-29T07:42:00;97352.59;;;2.28;72.09
10992;BME280;5549;47.028;15.514;2023-01-29T07:44:28;97347.47;;;2.48;72.28
10992;BME280;5549;47.028;15.514;2023-01-29T07:46:55;97347.59;;;2.45;72.63
10992;BME280;5549;47.028;15.514;2023-01-29T07:49:25;97348.56;;;2.64;71.90
10992;BME280;5549;47.028;15.514;2023-01-29T07:51:52;97350.00;;;2.71;71.46
10992;BME280;5549;47.028;15.514;2023-01-29T07:54:22;97347.94;;;2.79;71.25
10992;BME280;5549;47.028;15.514;2023-01-29T07:56:51;97338.34;;;2.81;70.80
10992;BME280;5549;47.028;15.514;2023-01-29T07:59:18;97335.56;;;2.86;70.71
10992;BME280;5549;47.028;15.514;2023-01-29T08:01:46;97339.91;;;2.85;70.70
10992;BME280;5549;47.028;15.514;2023-01-29T08:04:13;97336.78;;;2.77;70.99
10992;BME280;5549;47.028;15.514;2023-01-29T08:06:41;97340.97;;;2.60;71.72
10992;BME280;5549;47.028;15.514;2023-01-29T08:09:09;97342.53;;;2.64;71.32
10992;BME280;5549;47.028;15.514;2023-01-29T08:11:39;97345.84;;;2.67;71.00
10992;BME280;5549;47.028;15.514;2023-01-29T08:14:08;97339.94;;;2.64;71.66
10992;BME280;5549;47.028;15.514;2023-01-29T08:16:38;97340.84;;;2.63;71.65
10992;BME280;5549;47.028;15.514;2023-01-29T08:19:05;97341.38;;;2.71;71.43
10992;BME280;5549;47.028;15.514;2023-01-29T08:21:33;97353.09;;;2.59;71.51
10992;BME280;5549;47.028;15.514;2023-01-29T08:24:00;97349.34;;;2.66;71.22
10992;BME280;5549;47.028;15.514;2023-01-29T08:26:30;97354.19;;;2.53;71.80
10992;BME280;5549;47.028;15.514;2023-01-29T08:29:00;97354.06;;;2.56;72.11
10992;BME280;5549;47.028;15.514;2023-01-29T08:31:33;97350.50;;;2.37;72.33
10992;BME280;5549;47.028;15.514;2023-01-29T08:34:02;97357.50;;;2.57;71.86
10992;BME280;5549;47.028;15.514;2023-01-29T08:36:29;97355.19;;;2.71;71.53
10992;BME280;5549;47.028;15.514;2023-01-29T08:38:57;97361.41;;;2.67;71.64
10992;BME280;5549;47.028;15.514;2023-01-29T08:41:28;97356.50;;;2.81;71.63
10992;BME280;5549;47.028;15.514;2023-01-29T08:43:56;97360.84;;;2.81;71.85
10992;BME280;5549;47.028;15.514;2023-01-29T08:46:27;97360.63;;;2.65;71.77
10992;BME280;5549;47.028;15.514;2023-01-29T08:48:56;97367.28;;;2.93;71.11
10992;BME280;5549;47.028;15.514;2023-01-29T08:51:24;97356.53;;;3.02;71.02
10992;BME280;5549;47.028;15.514;2023-01-29T08:53:52;97365.44;;;3.16;70.90
10992;BME280;5549;47.028;15.514;2023-01-29T08:56:20;97364.97;;;3.27;70.98
10992;BME280;5549;47.028;15.514;2023-01-29T08:58:48;97366.47;;;3.33;70.34
10992;BME280;5549;47.028;15.514;2023-01-29T09:01:15;97363.56;;;3.40;70.03
10992;BME280;5549;47.028;15.514;2023-01-29T09:03:42;97368.13;;;3.56;69.74
10992;BME280;5549;47.028;15.514;2023-01-29T09:06:13;97367.31;;;3.74;69.86
10992;BME280;5549;47.028;15.514;2023-01-29T09:08:41;97369.25;;;3.89;69.71
10992;BME280;5549;47.028;15.514;2023-01-29T09:11:08;97373.81;;;4.22;68.59
10992;BME280;5549;47.028;15.514;2023-01-29T09:13:39;97378.31;;;4.37;67.37
10992;BME280;5549;47.028;15.514;2023-01-29T09:16:08;97371.84;;;4.45;66.53
10992;BME280;5549;47.028;15.514;2023-01-29T09:18:35;97372.41;;;4.52;65.63
10992;BME280;5549;47.028;15.514;2023-01-29T09:21:04;97372.34;;;4.54;65.26
10992;BME280;5549;47.028;15.514;2023-01-29T09:23:33;97374.44;;;4.64;64.80
10992;BME280;5549;47.028;15.514;2023-01-29T09:26:00;97377.28;;;4.77;64.91
10992;BME280;5549;47.028;15.514;2023-01-29T09:28:29;97377.84;;;4.83;64.68
10992;BME280;5549;47.028;15.514;2023-01-29T09:31:01;97384.72;;;4.84;63.77
10992;BME280;5549;47.028;15.514;2023-01-29T09:33:28;97386.84;;;4.76;63.62
10992;BME280;5549;47.028;15.514;2023-01-29T09:36:02;97376.75;;;4.70;62.96
10992;BME280;5549;47.028;15.514;2023-01-29T09:38:33;97379.47;;;4.67;63.45
10992;BME280;5549;47.028;15.514;2023-01-29T09:41:13;97384.50;;;4.53;62.92
10992;BME280;5549;47.028;15.514;2023-01-29T09:43:48;97391.25;;;4.38;63.51
10992;BME280;5549;47.028;15.514;2023-01-29T09:46:23;97392.28;;;3.58;65.38
10992;BME280;5549;47.028;15.514;2023-01-29T09:49:00;97384.25;;;3.82;65.44
10992;BME280;5549;47.028;15.514;2023-01-29T09:51:37;97388.38;;;3.68;66.27
10992;BME280;5549;47.028;15.514;2023-01-29T09:54:17;97386.53;;;3.70;66.72
10992;BME280;5549;47.028;15.514;2023-01-29T09:56:52;97386.75;;;3.65;66.78
10992;BME280;5549;47.028;15.514;2023-01-29T09:59:22;97383.31;;;3.65;67.85
10992;BME280;5549;47.028;15.514;2023-01-29T10:02:01;97375.78;;;4.16;66.70
10992;BME280;5549;47.028;15.514;2023-01-29T10:05:21;97377.75;;;4.11;64.53
10992;BME280;5549;47.028;15.514;2023-01-29T10:08:20;97381.91;;;4.53;64.34
10992;BME280;5549;47.028;15.514;2023-01-29T10:10:58;97370.44;;;4.57;63.50
10992;BME280;5549;47.028;15.514;2023-01-29T10:13:40;97372.56;;;4.11;63.78
10992;BME280;5549;47.028;15.514;2023-01-29T10:16:25;97378.53;;;4.32;63.71
10992;BME280;5549;47.028;15.514;2023-01-29T10:19:28;97372.41;;;4.33;62.81
10992;BME280;5549;47.028;15.514;2023-01-29T10:22:26;97367.63;;;4.24;63.93
10992;BME280;5549;47.028;15.514;2023-01-29T10:25:02;97355.69;;;4.01;64.89
10992;BME280;5549;47.028;15.514;2023-01-29T10:27:34;97364.63;;;4.14;62.89
10992;BME280;5549;47.028;15.514;2023-01-29T10:30:20;97361.03;;;3.98;63.03
10992;BME280;5549;47.028;15.514;2023-01-29T10:32:48;97356.13;;;3.92;63.95
10992;BME280;5549;47.028;15.514;2023-01-29T10:35:22;97351.06;;;3.89;64.40
10992;BME280;5549;47.028;15.514;2023-01-29T10:37:52;97357.53;;;3.99;63.88
10992;BME280;5549;47.028;15.514;2023-01-29T10:40:23;97356.47;;;4.03;65.00
10992;BME280;5549;47.028;15.514;2023-01-29T10:43:00;97352.16;;;3.83;62.03
10992;BME280;5549;47.028;15.514;2023-01-29T10:45:38;97348.25;;;3.94;63.56
10992;BME280;5549;47.028;15.514;2023-01-29T10:48:49;97344.72;;;3.76;65.11
10992;BME280;5549;47.028;15.514;2023-01-29T10:51:39;97349.31;;;4.08;66.44
10992;BME280;5549;47.028;15.514;2023-01-29T10:54:33;97351.88;;;4.46;66.76
10992;BME280;5549;47.028;15.514;2023-01-29T10:57:16;97348.63;;;4.60;65.44
10992;BME280;5549;47.028;15.514;2023-01-29T11:00:01;97351.22;;;4.60;63.70
10992;BME280;5549;47.028;15.514;2023-01-29T11:02:33;97349.50;;;4.23;63.79
10992;BME280;5549;47.028;15.514;2023-01-29T11:05:04;97344.19;;;4.26;63.32
10992;BME280;5549;47.028;15.514;2023-01-29T11:07:42;97348.47;;;4.27;63.74
10992;BME280;5549;47.028;15.514;2023-01-29T11:10:15;97342.06;;;4.34;64.36
10992;BME280;5549;47.028;15.514;2023-01-29T11:12:45;97335.19;;;4.14;64.68
10992;BME280;5549;47.028;15.514;2023-01-29T11:15:18;97334.31;;;3.76;65.90
10992;BME280;5549;47.028;15.514;2023-01-29T11:18:04;97324.44;;;3.84;65.36
10992;BME280;5549;47.028;15.514;2023-01-29T11:20:32;97331.94;;;3.90;66.06
10992;BME280;5549;47.028;15.514;2023-01-29T11:23:00;97326.25;;;3.82;66.11
10992;BME280;5549;47.028;15.514;2023-01-29T11:25:28;97329.28;;;3.92;66.64
10992;BME280;5549;47.028;15.514;2023-01-29T11:28:00;97333.63;;;3.91;67.24
10992;BME280;5549;47.028;15.514;2023-01-29T11:30:31;97329.13;;;3.76;65.56
10992;BME280;5549;47.028;15.514;2023-01-29T11:33:08;97322.38;;;3.72;67.09
10992;BME280;5549;47.028;15.514;2023-01-29T11:35:38;97320.88;;;3.47;66.67
10992;BME280;5549;47.028;15.514;2023-01-29T11:38:17;97301.59;;;3.72;67.21
10992;BME280;5549;47.028;15.514;2023-01-29T11:40:46;97301.88;;;3.66;67.34
10992;BME280;5549;47.028;15.514;2023-01-29T11:43:27;97311.97;;;3.53;67.11
10992;BME280;5549;47.028;15.514;2023-01-29T11:45:59;97308.53;;;3.52;68.00
10992;BME280;5549;47.028;15.514;2023-01-29T11:48:39;97302.84;;;3.63;66.36
10992;BME280;5549;47.028;15.514;2023-01-29T11:51:09;97292.81;;;3.35;65.09
10992;BME280;5549;47.028;15.514;2023-01-29T11:53:43;97289.50;;;3.32;64.68
10992;BME280;5549;47.028;15.514;2023-01-29T11:56:21;97282.63;;;3.51;65.41
10992;BME280;5549;47.028;15.514;2023-01-29T11:58:50;97279.47;;;3.24;64.59
10992;BME280;5549;47.028;15.514;2023-01-29T12:01:31;97274.13;;;3.27;63.30
10992;BME280;5549;47.028;15.514;2023-01-29T12:04:00;97274.66;;;3.35;64.16
10992;BME280;5549;47.028;15.514;2023-01-29T12:06:33;97273.38;;;3.25;63.75
10992;BME280;5549;47.028;15.514;2023-01-29T12:09:09;97257.53;;;3.31;63.43
10992;BME280;5549;47.028;15.514;2023-01-29T12:11:38;97264.16;;;3.18;63.58
10992;BME280;5549;47.028;15.514;2023-01-29T12:14:25;97267.00;;;3.12;64.17
10992;BME280;5549;47.028;15.514;2023-01-29T12:16:58;97264.53;;;3.29;64.34
10992;BME280;5549;47.028;15.514;2023-01-29T12:19:33;97273.03;;;3.33;65.78
10992;BME280;5549;47.028;15.514;2023-01-29T12:22:09;97280.03;;;3.51;65.46
10992;BME280;5549;47.028;15.514;2023-01-29T12:24:49;97275.34;;;3.59;65.78
10992;BME280;5549;47.028;15.514;2023-01-29T12:27:24;97281.44;;;3.58;65.39
10992;BME280;5549;47.028;15.514;2023-01-29T12:30:00;97270.28;;;3.75;65.32
10992;BME280;5549;47.028;15.514;2023-01-29T12:32:42;97259.47;;;3.84;65.33
10992;BME280;5549;47.028;15.514;2023-01-29T12:35:18;97245.56;;;3.85;64.06
10992;BME280;5549;47.028;15.514;2023-01-29T12:37:54;97242.50;;;3.58;64.62
10992;BME280;5549;47.028;15.514;2023-01-29T12:40:30;97256.94;;;3.64;64.08
10992;BME280;5549;47.028;15.514;2023-01-29T12:43:06;97269.84;;;3.26;64.26
10992;BME280;5549;47.028;15.514;2023-01-29T12:45:38;97251.41;;;3.32;65.62
10992;BME280;5549;47.028;15.514;2023-01-29T12:48:14;97253.09;;;3.33;66.40
10992;BME280;5549;47.028;15.514;2023-01-29T12:50:46;97256.53;;;3.54;65.87
10992;BME280;5549;47.028;15.514;2023-01-29T12:53:25;97243.47;;;3.56;66.47
10992;BME280;5549;47.028;15.514;2023-01-29T12:55:58;97230.78;;;3.29;65.70
10992;BME280;5549;47.028;15.514;2023-01-29T12:58:30;97230.91;;;3.26;65.77
10992;BME280;5549;47.028;15.514;2023-01-29T13:01:05;97225.88;;;3.23;65.37
10992;BME280;5549;47.028;15.514;2023-01-29T13:03:48;97228.13;;;3.31;66.00
10992;BME280;5549;47.028;15.514;2023-01-29T13:06:25;97218.91;;;3.23;65.46
10992;BME280;5549;47.028;15.514;2023-01-29T13:08:59;97220.34;;;3.31;65.76
10992;BME280;5549;47.028;15.514;2023-01-29T13:11:36;97220.25;;;3.32;65.68
10992;BME280;5549;47.028;15.514;2023-01-29T13:14:12;97219.56;;;3.29;65.80
10992;BME280;5549;47.028;15.514;2023-01-29T13:16:43;97223.13;;;3.26;67.07
10992;BME280;5549;47.028;15.514;2023-01-29T13:19:23;97215.47;;;3.23;66.55
10992;BME280;5549;47.028;15.514;2023-01-29T13:21:55;97218.72;;;2.89;67.12
10992;BME280;5549;47.028;15.514;2023-01-29T13:24:26;97208.56;;;3.03;67.25
10992;BME280;5549;47.028;15.514;2023-01-29T13:26:59;97207.59;;;3.06;67.14
10992;BME280;5549;47.028;15.514;2023-01-29T13:29:30;97209.81;;;2.95;67.79
10992;BME280;5549;47.028;15.514;2023-01-29T13:31:59;97206.59;;;2.89;66.21
10992;BME280;5549;47.028;15.514;2023-01-29T13:34:31;97209.38;;;2.85;66.33
10992;BME280;5549;47.028;15.514;2023-01-29T13:37:02;97199.00;;;2.85;66.38
10992;BME280;5549;47.028;15.514;2023-01-29T13:39:32;97201.78;;;3.01;66.17
10992;BME280;5549;47.028;15.514;2023-01-29T13:42:16;97203.22;;;2.87;65.51
10992;BME280;5549;47.028;15.514;2023-01-29T13:44:49;97214.25;;;2.72;65.55